sensor_id;sensor_type;location;lat;lon;timestamp;P1;durP1;ratioP1;P2;durP2;ratioP2
18194;SDS011;9223;50.988;3.162;2022-08-19T00:04:09;20.60;;;16.58;;
18194;SDS011;9223;50.988;3.162;2022-08-19T00:10:13;21.58;;;16.13;;
18194;SDS011;9223;50.988;3.162;2022-08-19T00:16:17;21.98;;;16.88;;
18194;SDS011;9223;50.988;3.162;2022-08-19T00:22:28;23.35;;;17.33;;
18194;SDS011;9223;50.988;3.162;2022-08-19T00:28:32;22.85;;;17.23;;
18194;SDS011;9223;50.988;3.162;2022-08-19T00:34:37;24.02;;;17.33;;
18194;SDS011;9223;50.988;3.162;2022-08-19T00:40:43;22.10;;;15.48;;
18194;SDS011;9223;50.988;3.162;2022-08-19T00:46:48;23.90;;;16.42;;
18194;SDS011;9223;50.988;3.162;2022-08-19T00:52:58;22.25;;;16.20;;
18194;SDS011;9223;50.988;3.162;2022-08-19T00:59:03;24.23;;;16.65;;
18194;SDS011;9223;50.988;3.162;2022-08-19T01:05:10;20.73;;;14.77;;
18194;SDS011;9223;50.988;3.162;2022-08-19T01:11:14;24.20;;;16.17;;
18194;SDS011;9223;50.988;3.162;2022-08-19T01:17:19;21.67;;;15.02;;
18194;SDS011;9223;50.988;3.162;2022-08-19T01:23:25;21.25;;;15.00;;
18194;SDS011;9223;50.988;3.162;2022-08-19T01:29:44;19.30;;;15.00;;
18194;SDS011;9223;50.988;3.162;2022-08-19T01:35:49;19.52;;;14.20;;
18194;SDS011;9223;50.988;3.162;2022-08-19T01:41:55;17.15;;;14.48;;
18194;SDS011;9223;50.988;3.162;2022-08-19T01:47:58;19.73;;;14.07;;
18194;SDS011;9223;50.988;3.162;2022-08-19T01:54:03;19.50;;;14.30;;
18194;SDS011;9223;50.988;3.162;2022-08-19T02:00:09;20.90;;;14.65;;
18194;SDS011;9223;50.988;3.162;2022-08-19T02:06:13;20.70;;;14.02;;
18194;SDS011;9223;50.988;3.162;2022-08-19T02:12:18;15.80;;;13.30;;
18194;SDS011;9223;50.988;3.162;2022-08-19T02:18:23;17.23;;;12.82;;
18194;SDS011;9223;50.988;3.162;2022-08-19T02:24:28;15.82;;;11.85;;
18194;SDS011;9223;50.988;3.162;2022-08-19T02:30:31;16.80;;;12.10;;
18194;SDS011;9223;50.988;3.162;2022-08-19T02:36:36;15.25;;;11.27;;
18194;SDS011;9223;50.988;3.162;2022-08-19T02:42:42;21.02;;;12.57;;
18194;SDS011;9223;50.988;3.162;2022-08-19T02:48:47;19.30;;;11.68;;
18194;SDS011;9223;50.988;3.162;2022-08-19T02:54:52;17.05;;;11.13;;
18194;SDS011;9223;50.988;3.162;2022-08-19T03:00:58;16.83;;;11.07;;
18194;SDS011;9223;50.988;3.162;2022-08-19T03:07:02;17.63;;;11.63;;
18194;SDS011;9223;50.988;3.162;2022-08-19T03:13:13;16.95;;;11.27;;
18194;SDS011;9223;50.988;3.162;2022-08-19T03:19:17;15.73;;;11.05;;
18194;SDS011;9223;50.988;3.162;2022-08-19T03:25:22;14.45;;;10.05;;
18194;SDS011;9223;50.988;3.162;2022-08-19T03:31:27;16.10;;;10.57;;
18194;SDS011;9223;50.988;3.162;2022-08-19T03:37:45;15.77;;;10.40;;
18194;SDS011;9223;50.988;3.162;2022-08-19T03:43:48;14.00;;;8.95;;
18194;SDS011;9223;50.988;3.162;2022-08-19T03:49:53;13.70;;;9.60;;
18194;SDS011;9223;50.988;3.162;2022-08-19T03:55:57;14.43;;;9.75;;
18194;SDS011;9223;50.988;3.162;2022-08-19T04:02:02;12.63;;;8.55;;
18194;SDS011;9223;50.988;3.162;2022-08-19T04:08:07;14.38;;;9.50;;
18194;SDS011;9223;50.988;3.162;2022-08-19T04:14:15;12.40;;;8.38;;
18194;SDS011;9223;50.988;3.162;2022-08-19T04:20:19;14.32;;;8.80;;
18194;SDS011;9223;50.988;3.162;2022-08-19T04:26:25;14.82;;;8.48;;
18194;SDS011;9223;50.988;3.162;2022-08-19T04:32:29;17.02;;;9.05;;
18194;SDS011;9223;50.988;3.162;2022-08-19T04:38:33;13.73;;;7.82;;
18194;SDS011;9223;50.988;3.162;2022-08-19T04:44:38;17.92;;;7.88;;
18194;SDS011;9223;50.988;3.162;2022-08-19T04:50:46;11.32;;;7.55;;
18194;SDS011;9223;50.988;3.162;2022-08-19T04:56:50;13.95;;;7.22;;
18194;SDS011;9223;50.988;3.162;2022-08-19T05:02:55;11.75;;;7.55;;
18194;SDS011;9223;50.988;3.162;2022-08-19T05:08:59;10.82;;;7.07;;
18194;SDS011;9223;50.988;3.162;2022-08-19T05:15:05;10.20;;;6.78;;
18194;SDS011;9223;50.988;3.162;2022-08-19T05:21:12;9.57;;;6.85;;
18194;SDS011;9223;50.988;3.162;2022-08-19T05:27:34;12.57;;;7.47;;
18194;SDS011;9223;50.988;3.162;2022-08-19T05:33:37;10.55;;;7.57;;
18194;SDS011;9223;50.988;3.162;2022-08-19T05:39:42;10.07;;;7.40;;
18194;SDS011;9223;50.988;3.162;2022-08-19T05:45:51;12.70;;;8.35;;
18194;SDS011;9223;50.988;3.162;2022-08-19T05:51:55;13.07;;;8.32;;
18194;SDS011;9223;50.988;3.162;2022-08-19T05:58:00;14.75;;;8.40;;
18194;SDS011;9223;50.988;3.162;2022-08-19T06:04:04;11.98;;;7.68;;
18194;SDS011;9223;50.988;3.162;2022-08-19T06:10:08;10.45;;;6.85;;
18194;SDS011;9223;50.988;3.162;2022-08-19T06:16:13;10.48;;;6.82;;
18194;SDS011;9223;50.988;3.162;2022-08-19T06:22:23;10.35;;;6.75;;
18194;SDS011;9223;50.988;3.162;2022-08-19T06:28:27;10.10;;;6.88;;
18194;SDS011;9223;50.988;3.162;2022-08-19T06:34:33;9.35;;;6.13;;
18194;SDS011;9223;50.988;3.162;2022-08-19T06:40:37;12.80;;;5.53;;
18194;SDS011;9223;50.988;3.162;2022-08-19T06:46:40;11.50;;;5.65;;
18194;SDS011;9223;50.988;3.162;2022-08-19T06:52:55;9.30;;;5.80;;
18194;SDS011;9223;50.988;3.162;2022-08-19T06:59:05;8.50;;;5.72;;
18194;SDS011;9223;50.988;3.162;2022-08-19T07:05:09;11.45;;;5.93;;
18194;SDS011;9223;50.988;3.162;2022-08-19T07:11:16;9.07;;;6.05;;
18194;SDS011;9223;50.988;3.162;2022-08-19T07:17:20;8.98;;;5.78;;
18194;SDS011;9223;50.988;3.162;2022-08-19T07:23:23;10.90;;;6.60;;
18194;SDS011;9223;50.988;3.162;2022-08-19T07:29:29;13.70;;;7.15;;
18194;SDS011;9223;50.988;3.162;2022-08-19T07:35:35;7.45;;;5.38;;
18194;SDS011;9223;50.988;3.162;2022-08-19T07:41:39;7.65;;;4.10;;
18194;SDS011;9223;50.988;3.162;2022-08-19T07:47:43;2.33;;;2.13;;
18194;SDS011;9223;50.988;3.162;2022-08-19T07:53:59;2.58;;;2.10;;
18194;SDS011;9223;50.988;3.162;2022-08-19T08:00:03;3.42;;;3.00;;
18194;SDS011;9223;50.988;3.162;2022-08-19T08:06:08;6.47;;;4.20;;
18194;SDS011;9223;50.988;3.162;2022-08-19T08:12:33;5.25;;;3.60;;
18194;SDS011;9223;50.988;3.162;2022-08-19T08:18:39;4.60;;;3.33;;
18194;SDS011;9223;50.988;3.162;2022-08-19T08:24:52;4.65;;;2.72;;
18194;SDS011;9223;50.988;3.162;2022-08-19T08:30:56;3.72;;;2.92;;
18194;SDS011;9223;50.988;3.162;2022-08-19T08:37:00;5.22;;;3.20;;
18194;SDS011;9223;50.988;3.162;2022-08-19T08:43:06;2.90;;;2.10;;
18194;SDS011;9223;50.988;3.162;2022-08-19T08:49:15;3.67;;;2.50;;
18194;SDS011;9223;50.988;3.162;2022-08-19T08:55:23;2.35;;;1.40;;
18194;SDS011;9223;50.988;3.162;2022-08-19T09:01:28;1.73;;;1.40;;
18194;SDS011;9223;50.988;3.162;2022-08-19T09:07:34;3.53;;;1.63;;
18194;SDS011;9223;50.988;3.162;2022-08-19T09:13:49;1.75;;;1.20;;
18194;SDS011;9223;50.988;3.162;2022-08-19T09:19:59;1.90;;;1.45;;
18194;SDS011;9223;50.988;3.162;2022-08-19T09:26:09;2.25;;;1.35;;
18194;SDS011;9223;50.988;3.162;2022-08-19T09:32:16;3.25;;;1.23;;
18194;SDS011;9223;50.988;3.162;2022-08-19T09:38:28;2.88;;;1.50;;
18194;SDS011;9223;50.988;3.162;2022-08-19T09:44:32;1.50;;;1.33;;
18194;SDS011;9223;50.988;3.162;2022-08-19T09:50:35;1.10;;;1.00;;
18194;SDS011;9223;50.988;3.162;2022-08-19T09:56:54;2.95;;;1.20;;
18194;SDS011;9223;50.988;3.162;2022-08-19T10:02:58;1.80;;;1.10;;
18194;SDS011;9223;50.988;3.162;2022-08-19T10:09:01;1.92;;;1.40;;
18194;SDS011;9223;50.988;3.162;2022-08-19T10:15:10;1.50;;;1.33;;
18194;SDS011;9223;50.988;3.162;2022-08-19T10:21:15;1.92;;;1.10;;
18194;SDS011;9223;50.988;3.162;2022-08-19T10:27:18;1.13;;;0.90;;
18194;SDS011;9223;50.988;3.162;2022-08-19T10:33:24;1.42;;;1.02;;
18194;SDS011;9223;50.988;3.162;2022-08-19T10:39:49;2.25;;;1.10;;
18194;SDS011;9223;50.988;3.162;2022-08-19T10:45:53;2.08;;;0.95;;
18194;SDS011;9223;50.988;3.162;2022-08-19T10:51:59;2.10;;;1.00;;
18194;SDS011;9223;50.988;3.162;2022-08-19T10:58:32;3.05;;;0.90;;
18194;SDS011;9223;50.988;3.162;2022-08-19T11:04:36;1.02;;;0.60;;
18194;SDS011;9223;50.988;3.162;2022-08-19T11:10:42;2.08;;;0.70;;
18194;SDS011;9223;50.988;3.162;2022-08-19T11:16:51;2.03;;;1.00;;
18194;SDS011;9223;50.988;3.162;2022-08-19T11:22:57;5.53;;;1.77;;
18194;SDS011;9223;50.988;3.162;2022-08-19T11:29:06;2.35;;;1.48;;
18194;SDS011;9223;50.988;3.162;2022-08-19T11:35:12;2.67;;;1.77;;
18194;SDS011;9223;50.988;3.162;2022-08-19T11:41:16;2.40;;;1.70;;
18194;SDS011;9223;50.988;3.162;2022-08-19T11:47:21;2.42;;;1.88;;
18194;SDS011;9223;50.988;3.162;2022-08-19T11:53:25;2.80;;;2.00;;
18194;SDS011;9223;50.988;3.162;2022-08-19T11:59:28;1.90;;;1.70;;
18194;SDS011;9223;50.988;3.162;2022-08-19T12:05:34;1.98;;;1.23;;
18194;SDS011;9223;50.988;3.162;2022-08-19T12:11:39;4.28;;;2.22;;
18194;SDS011;9223;50.988;3.162;2022-08-19T12:17:43;3.85;;;2.50;;
18194;SDS011;9223;50.988;3.162;2022-08-19T12:23:48;5.35;;;2.03;;
18194;SDS011;9223;50.988;3.162;2022-08-19T12:29:56;4.53;;;2.08;;
18194;SDS011;9223;50.988;3.162;2022-08-19T12:36:00;4.22;;;2.20;;
18194;SDS011;9223;50.988;3.162;2022-08-19T12:42:05;3.15;;;1.80;;
18194;SDS011;9223;50.988;3.162;2022-08-19T12:48:09;6.13;;;2.50;;
18194;SDS011;9223;50.988;3.162;2022-08-19T12:54:34;5.72;;;2.60;;
18194;SDS011;9223;50.988;3.162;2022-08-19T13:00:39;4.75;;;2.80;;
18194;SDS011;9223;50.988;3.162;2022-08-19T13:06:42;6.15;;;2.42;;
18194;SDS011;9223;50.988;3.162;2022-08-19T13:12:46;4.60;;;2.70;;
18194;SDS011;9223;50.988;3.162;2022-08-19T13:18:52;5.03;;;2.13;;
18194;SDS011;9223;50.988;3.162;2022-08-19T13:24:57;5.78;;;2.60;;
18194;SDS011;9223;50.988;3.162;2022-08-19T13:31:00;4.35;;;3.17;;
18194;SDS011;9223;50.988;3.162;2022-08-19T13:37:23;7.18;;;3.08;;
18194;SDS011;9223;50.988;3.162;2022-08-19T13:43:40;6.15;;;3.58;;
18194;SDS011;9223;50.988;3.162;2022-08-19T13:49:43;6.72;;;3.78;;
18194;SDS011;9223;50.988;3.162;2022-08-19T13:55:49;5.93;;;2.75;;
18194;SDS011;9223;50.988;3.162;2022-08-19T14:01:57;6.60;;;2.60;;
18194;SDS011;9223;50.988;3.162;2022-08-19T14:08:00;3.33;;;1.23;;
18194;SDS011;9223;50.988;3.162;2022-08-19T14:14:05;2.67;;;1.20;;
18194;SDS011;9223;50.988;3.162;2022-08-19T14:20:13;2.13;;;1.05;;
18194;SDS011;9223;50.988;3.162;2022-08-19T14:26:19;2.50;;;1.20;;
18194;SDS011;9223;50.988;3.162;2022-08-19T14:32:24;2.60;;;1.10;;
18194;SDS011;9223;50.988;3.162;2022-08-19T14:38:28;3.25;;;1.30;;
18194;SDS011;9223;50.988;3.162;2022-08-19T14:44:32;2.85;;;1.25;;
18194;SDS011;9223;50.988;3.162;2022-08-19T14:50:37;3.38;;;1.52;;
18194;SDS011;9223;50.988;3.162;2022-08-19T14:56:40;2.63;;;1.25;;
18194;SDS011;9223;50.988;3.162;2022-08-19T15:02:44;1.23;;;0.80;;
18194;SDS011;9223;50.988;3.162;2022-08-19T15:08:49;3.20;;;1.23;;
18194;SDS011;9223;50.988;3.162;2022-08-19T15:14:54;2.03;;;1.10;;
18194;SDS011;9223;50.988;3.162;2022-08-19T15:20:57;3.00;;;1.30;;
18194;SDS011;9223;50.988;3.162;2022-08-19T15:27:02;1.85;;;1.02;;
18194;SDS011;9223;50.988;3.162;2022-08-19T15:33:06;2.63;;;1.67;;
18194;SDS011;9223;50.988;3.162;2022-08-19T15:39:10;4.78;;;2.58;;
18194;SDS011;9223;50.988;3.162;2022-08-19T15:45:15;5.03;;;1.88;;
18194;SDS011;9223;50.988;3.162;2022-08-19T15:51:18;2.63;;;1.60;;
18194;SDS011;9223;50.988;3.162;2022-08-19T15:57:22;2.42;;;1.00;;
18194;SDS011;9223;50.988;3.162;2022-08-19T16:03:45;1.55;;;0.90;;
18194;SDS011;9223;50.988;3.162;2022-08-19T16:10:15;1.30;;;1.15;;
18194;SDS011;9223;50.988;3.162;2022-08-19T16:16:28;1.02;;;0.90;;
18194;SDS011;9223;50.988;3.162;2022-08-19T16:22:36;1.80;;;1.27;;
18194;SDS011;9223;50.988;3.162;2022-08-19T16:28:39;2.75;;;1.63;;
18194;SDS011;9223;50.988;3.162;2022-08-19T16:34:43;2.22;;;1.27;;
18194;SDS011;9223;50.988;3.162;2022-08-19T16:40:47;1.88;;;1.38;;
18194;SDS011;9223;50.988;3.162;2022-08-19T16:46:54;2.03;;;1.00;;
18194;SDS011;9223;50.988;3.162;2022-08-19T16:53:00;2.28;;;1.13;;
18194;SDS011;9223;50.988;3.162;2022-08-19T16:59:05;2.40;;;1.00;;
18194;SDS011;9223;50.988;3.162;2022-08-19T17:05:08;1.83;;;1.20;;
18194;SDS011;9223;50.988;3.162;2022-08-19T17:11:12;1.90;;;1.17;;
18194;SDS011;9223;50.988;3.162;2022-08-19T17:17:21;1.85;;;1.10;;
18194;SDS011;9223;50.988;3.162;2022-08-19T17:23:29;1.48;;;1.05;;
18194;SDS011;9223;50.988;3.162;2022-08-19T17:29:43;1.00;;;0.85;;
18194;SDS011;9223;50.988;3.162;2022-08-19T17:35:48;1.95;;;0.68;;
18194;SDS011;9223;50.988;3.162;2022-08-19T17:41:52;2.13;;;0.70;;
18194;SDS011;9223;50.988;3.162;2022-08-19T17:47:55;0.75;;;0.60;;
18194;SDS011;9223;50.988;3.162;2022-08-19T17:54:02;0.88;;;0.70;;
18194;SDS011;9223;50.988;3.162;2022-08-19T18:00:07;1.08;;;0.80;;
18194;SDS011;9223;50.988;3.162;2022-08-19T18:06:12;1.05;;;0.60;;
18194;SDS011;9223;50.988;3.162;2022-08-19T18:12:22;0.45;;;0.45;;
18194;SDS011;9223;50.988;3.162;2022-08-19T18:18:26;0.68;;;0.60;;
18194;SDS011;9223;50.988;3.162;2022-08-19T18:24:30;1.08;;;0.70;;
18194;SDS011;9223;50.988;3.162;2022-08-19T18:30:34;0.50;;;0.50;;
18194;SDS011;9223;50.988;3.162;2022-08-19T18:36:38;0.60;;;0.50;;
18194;SDS011;9223;50.988;3.162;2022-08-19T18:42:54;1.27;;;0.70;;
18194;SDS011;9223;50.988;3.162;2022-08-19T18:49:20;4.18;;;0.73;;
18194;SDS011;9223;50.988;3.162;2022-08-19T18:55:24;1.10;;;0.70;;
18194;SDS011;9223;50.988;3.162;2022-08-19T19:01:30;0.98;;;0.70;;
18194;SDS011;9223;50.988;3.162;2022-08-19T19:07:35;1.13;;;1.02;;
18194;SDS011;9223;50.988;3.162;2022-08-19T19:13:39;0.75;;;0.60;;
18194;SDS011;9223;50.988;3.162;2022-08-19T19:19:47;1.73;;;1.00;;
18194;SDS011;9223;50.988;3.162;2022-08-19T19:25:51;1.92;;;1.20;;
18194;SDS011;9223;50.988;3.162;2022-08-19T19:31:55;1.35;;;1.25;;
18194;SDS011;9223;50.988;3.162;2022-08-19T19:37:59;1.90;;;1.40;;
18194;SDS011;9223;50.988;3.162;2022-08-19T19:44:03;3.22;;;1.45;;
18194;SDS011;9223;50.988;3.162;2022-08-19T19:50:29;1.70;;;1.33;;
18194;SDS011;9223;50.988;3.162;2022-08-19T19:56:33;2.90;;;1.60;;
18194;SDS011;9223;50.988;3.162;2022-08-19T20:02:38;1.58;;;1.15;;
18194;SDS011;9223;50.988;3.162;2022-08-19T20:08:41;2.63;;;2.30;;
18194;SDS011;9223;50.988;3.162;2022-08-19T20:15:02;3.40;;;2.40;;
18194;SDS011;9223;50.988;3.162;2022-08-19T20:21:08;3.33;;;2.83;;
18194;SDS011;9223;50.988;3.162;2022-08-19T20:27:12;3.72;;;2.83;;
18194;SDS011;9223;50.988;3.162;2022-08-19T20:33:17;3.50;;;3.13;;
18194;SDS011;9223;50.988;3.162;2022-08-19T20:39:22;3.92;;;2.90;;
18194;SDS011;9223;50.988;3.162;2022-08-19T20:45:26;4.40;;;2.40;;
18194;SDS011;9223;50.988;3.162;2022-08-19T20:51:33;3.45;;;2.60;;
18194;SDS011;9223;50.988;3.162;2022-08-19T20:57:38;3.30;;;2.22;;
18194;SDS011;9223;50.988;3.162;2022-08-19T21:03:41;4.85;;;2.63;;
18194;SDS011;9223;50.988;3.162;2022-08-19T21:09:45;4.55;;;3.03;;
18194;SDS011;9223;50.988;3.162;2022-08-19T21:15:50;3.55;;;2.67;;
18194;SDS011;9223;50.988;3.162;2022-08-19T21:21:54;4.90;;;2.08;;
18194;SDS011;9223;50.988;3.162;2022-08-19T21:27:58;6.38;;;2.40;;
18194;SDS011;9223;50.988;3.162;2022-08-19T21:34:03;6.78;;;2.50;;
18194;SDS011;9223;50.988;3.162;2022-08-19T21:40:07;4.43;;;2.35;;
18194;SDS011;9223;50.988;3.162;2022-08-19T21:46:11;11.95;;;3.00;;
18194;SDS011;9223;50.988;3.162;2022-08-19T21:52:20;6.93;;;3.00;;
18194;SDS011;9223;50.988;3.162;2022-08-19T21:58:24;8.75;;;3.05;;
18194;SDS011;9223;50.988;3.162;2022-08-19T22:04:30;9.50;;;3.90;;
18194;SDS011;9223;50.988;3.162;2022-08-19T22:10:35;9.35;;;3.92;;
18194;SDS011;9223;50.988;3.162;2022-08-19T22:16:39;10.43;;;3.70;;
18194;SDS011;9223;50.988;3.162;2022-08-19T22:22:44;8.98;;;3.80;;
18194;SDS011;9223;50.988;3.162;2022-08-19T22:28:51;12.25;;;3.70;;
18194;SDS011;9223;50.988;3.162;2022-08-19T22:34:56;11.88;;;4.20;;
18194;SDS011;9223;50.988;3.162;2022-08-19T22:41:00;14.50;;;4.07;;
18194;SDS011;9223;50.988;3.162;2022-08-19T22:47:05;9.63;;;3.58;;
18194;SDS011;9223;50.988;3.162;2022-08-19T22:53:10;12.00;;;4.22;;
18194;SDS011;9223;50.988;3.162;2022-08-19T22:59:13;11.90;;;4.25;;
18194;SDS011;9223;50.988;3.162;2022-08-19T23:05:19;12.45;;;4.50;;
18194;SDS011;9223;50.988;3.162;2022-08-19T23:11:22;8.57;;;3.80;;
18194;SDS011;9223;50.988;3.162;2022-08-19T23:17:26;11.43;;;4.65;;
18194;SDS011;9223;50.988;3.162;2022-08-19T23:23:31;10.70;;;3.90;;
18194;SDS011;9223;50.988;3.162;2022-08-19T23:29:39;11.02;;;4.20;;
18194;SDS011;9223;50.988;3.162;2022-08-19T23:36:01;13.43;;;4.25;;
18194;SDS011;9223;50.988;3.162;2022-08-19T23:42:08;10.93;;;4.28;;
18194;SDS011;9223;50.988;3.162;2022-08-19T23:48:12;15.38;;;3.80;;
18194;SDS011;9223;50.988;3.162;2022-08-19T23:54:16;12.63;;;4.18;;
